CEM4 weather

Innisfail Airport
Innisfail, Alberta, Canada

Public forecast

Using degrees Celsius for public forecast. Weather courtesy of forecast.io.

METAR (pilot weather report)

Closest report is Red Deer Regional Airport, 7.9 nm (14.7 km) NE. Retrieved 2019/07/20 17:00 UTC (37 minutes ago):

CYQF 201700Z 31006KT 12SM FEW012 BKN030 BKN090 16/13 A3012 RMK SC1SC4AC2 CU EMBD SLP212 DENSITY ALT 3600FT

TAF (pilot weather forecast)

Closest forecast is Red Deer Regional Airport, 7.9 nm (14.7 km) NE. Retrieved 2019/07/20 12:51 UTC (5 hours ago):

TAF CYQF 201149Z 2012/2024 32005KT P6SM FEW008 BKN100 TEMPO 2012/2015 2SM BR BECMG 2013/2015 36008KT FM201500 36008KT P6SM SCT020 BKN040 TEMPO 2015/2021 P6SM -SHRA BKN020 FM202100 03006KT P6SM VCSH SCT020 BKN040 TEMPO 2021/2024 VRB15G25KT 5SM TSRA BKN020CB RMK NXT FCST BY 201800Z